createdAt,value
2018-07-20T00:00:32.663Z,97951.84
2018-07-20T00:01:37.244Z,97952.38
2018-07-20T00:02:45.394Z,97945.30
2018-07-20T00:03:52.413Z,97951.59
2018-07-20T00:04:59.232Z,97946.43
2018-07-20T00:06:04.341Z,97947.25
2018-07-20T00:07:07.252Z,97939.62
2018-07-20T00:08:10.660Z,97946.26
2018-07-20T00:09:16.329Z,97946.61
2018-07-20T00:10:19.781Z,97944.02
2018-07-20T00:11:22.729Z,97943.81
2018-07-20T00:12:25.573Z,97943.84
2018-07-20T00:13:28.687Z,97940.45
2018-07-20T00:14:31.592Z,97946.36
2018-07-20T00:15:34.985Z,97944.84
2018-07-20T00:16:37.820Z,97945.05
2018-07-20T00:17:40.689Z,97940.77
2018-07-20T00:18:44.034Z,97944.30
2018-07-20T00:19:48.068Z,97941.28
2018-07-20T00:20:51.008Z,97944.52
2018-07-20T00:21:54.247Z,97949.69
2018-07-20T00:22:57.153Z,97940.39
2018-07-20T00:24:00.034Z,97945.33
2018-07-20T00:25:04.238Z,97942.19
2018-07-20T00:26:07.741Z,97938.66
2018-07-20T00:27:10.643Z,97937.53
2018-07-20T00:28:14.116Z,97935.17
2018-07-20T00:29:17.082Z,97936.03
2018-07-20T00:30:20.026Z,97936.32
2018-07-20T00:31:22.948Z,97936.75
2018-07-20T00:32:25.914Z,97934.65
2018-07-20T00:33:28.900Z,97930.77
2018-07-20T00:34:32.208Z,97934.08
2018-07-20T00:35:35.151Z,97929.38
2018-07-20T00:36:38.957Z,97933.05
2018-07-20T00:37:42.493Z,97934.38
2018-07-20T00:38:45.386Z,97929.81
2018-07-20T00:39:48.269Z,97929.44
2018-07-20T00:40:52.398Z,97932.02
2018-07-20T00:41:56.922Z,97930.12
2018-07-20T00:42:59.849Z,97926.79
2018-07-20T00:44:02.810Z,97929.38
2018-07-20T00:45:05.695Z,97929.38
2018-07-20T00:46:08.904Z,97922.90
2018-07-20T00:47:12.291Z,97932.30
2018-07-20T00:48:15.371Z,97926.50
2018-07-20T00:49:18.221Z,97924.03
2018-07-20T00:50:21.219Z,97923.40
2018-07-20T00:51:24.113Z,97929.55
2018-07-20T00:52:26.974Z,97921.34
2018-07-20T00:53:30.316Z,97922.02
2018-07-20T00:54:33.181Z,97921.28
2018-07-20T00:55:36.123Z,97923.80
2018-07-20T00:56:39.094Z,97929.97
2018-07-20T00:57:42.038Z,97918.17
2018-07-20T00:58:44.883Z,97917.45
2018-07-20T00:59:48.393Z,97921.56
2018-07-20T01:00:51.320Z,97922.38
2018-07-20T01:01:54.221Z,97913.02
2018-07-20T01:02:57.571Z,97919.28
2018-07-20T01:04:00.669Z,97921.76
2018-07-20T01:05:03.656Z,97918.22
2018-07-20T01:06:08.572Z,97911.04
2018-07-20T01:07:11.550Z,97915.48
2018-07-20T01:08:14.464Z,97919.72
2018-07-20T01:09:17.358Z,97916.31
2018-07-20T01:10:20.430Z,97915.16
2018-07-20T01:11:23.382Z,97920.87
2018-07-20T01:12:26.656Z,97921.51
2018-07-20T01:13:29.775Z,97921.19
2018-07-20T01:14:32.616Z,97918.03
2018-07-20T01:15:36.191Z,97918.70
2018-07-20T01:16:39.030Z,97917.92
2018-07-20T01:17:41.921Z,97918.69
2018-07-20T01:18:45.201Z,97917.88
2018-07-20T01:19:48.100Z,97914.66
2018-07-20T01:20:50.988Z,97914.45
2018-07-20T01:21:53.930Z,97920.57
2018-07-20T01:22:57.593Z,97916.00
2018-07-20T01:24:00.570Z,97918.48
2018-07-20T01:25:03.822Z,97920.78
2018-07-20T01:26:06.784Z,97913.13
2018-07-20T01:27:09.658Z,97912.59
2018-07-20T01:28:12.502Z,97918.03
2018-07-20T01:29:15.437Z,97911.39
2018-07-20T01:30:18.325Z,97914.85
2018-07-20T01:31:21.830Z,97912.27
2018-07-20T01:32:24.756Z,97913.91
2018-07-20T01:33:27.597Z,97909.42
2018-07-20T01:34:30.456Z,97919.31
2018-07-20T01:35:33.309Z,97910.32
2018-07-20T01:36:36.184Z,97916.12
2018-07-20T01:37:40.281Z,97914.25
2018-07-20T01:38:43.339Z,97914.72
2018-07-20T01:39:46.175Z,97907.97
2018-07-20T01:40:50.814Z,97916.44
2018-07-20T01:41:53.753Z,97915.17
2018-07-20T01:42:57.340Z,97916.05
2018-07-20T01:44:00.863Z,97918.36
2018-07-20T01:45:03.760Z,97914.91
2018-07-20T01:46:07.657Z,97910.33
2018-07-20T01:47:11.609Z,97914.85
2018-07-20T01:48:14.480Z,97918.69
2018-07-20T01:49:17.406Z,97913.83
2018-07-20T01:50:20.800Z,97915.46
2018-07-20T01:51:23.702Z,97919.56
2018-07-20T01:52:26.653Z,97915.09
2018-07-20T01:53:30.112Z,97917.77
2018-07-20T01:54:43.398Z,97914.50
2018-07-20T01:55:48.062Z,97910.16
2018-07-20T01:56:52.925Z,97909.19
2018-07-20T01:57:57.433Z,97915.06
2018-07-20T01:59:00.363Z,97915.06
2018-07-20T02:00:03.754Z,97913.55
2018-07-20T02:01:06.650Z,97916.12
2018-07-20T02:02:09.564Z,97911.70
2018-07-20T02:03:14.595Z,97913.85
2018-07-20T02:04:18.452Z,97912.59
2018-07-20T02:05:21.319Z,97909.74
2018-07-20T02:06:24.245Z,97911.29
2018-07-20T02:07:27.134Z,97910.10
2018-07-20T02:08:30.028Z,97905.20
2018-07-20T02:09:33.449Z,97910.16
2018-07-20T02:10:36.330Z,97908.57
2018-07-20T02:11:39.248Z,97903.50
2018-07-20T02:12:42.316Z,97909.42
2018-07-20T02:13:45.251Z,97909.59
2018-07-20T02:14:48.142Z,97908.78
2018-07-20T02:15:57.299Z,97905.45
2018-07-20T02:17:01.856Z,97912.34
2018-07-20T02:18:05.357Z,97905.13
2018-07-20T02:19:09.330Z,97904.82
2018-07-20T02:20:17.310Z,97906.38
2018-07-20T02:21:20.410Z,97902.50
2018-07-20T02:22:23.891Z,97906.47
2018-07-20T02:23:27.865Z,97901.53
2018-07-20T02:24:31.287Z,97901.45
2018-07-20T02:25:35.067Z,97901.87
2018-07-20T02:26:39.183Z,97902.66
2018-07-20T02:27:42.368Z,97901.44
2018-07-20T02:28:46.134Z,97903.86
2018-07-20T02:29:49.827Z,97895.64
2018-07-20T02:30:52.847Z,97899.92
2018-07-20T02:31:55.786Z,97899.55
2018-07-20T02:32:59.331Z,97894.30
2018-07-20T02:34:02.275Z,97900.67
2018-07-20T02:35:05.878Z,97896.52
2018-07-20T02:36:08.731Z,97889.05
2018-07-20T02:37:11.740Z,97890.62
2018-07-20T02:38:14.753Z,97896.02
2018-07-20T02:39:17.634Z,97891.08
2018-07-20T02:40:20.475Z,97898.30
2018-07-20T02:41:23.777Z,97895.55
2018-07-20T02:42:26.642Z,97890.37
2018-07-20T02:43:29.575Z,97892.27
2018-07-20T02:44:32.453Z,97892.34
2018-07-20T02:45:35.583Z,97889.90
2018-07-20T02:46:38.698Z,97890.00
2018-07-20T02:47:42.036Z,97893.39
2018-07-20T02:48:45.576Z,97896.52
2018-07-20T02:49:49.337Z,97892.16
2018-07-20T02:50:53.108Z,97887.16
2018-07-20T02:51:56.801Z,97885.87
2018-07-20T02:52:59.783Z,97885.71
2018-07-20T02:54:04.330Z,97887.22
2018-07-20T02:55:07.226Z,97888.65
2018-07-20T02:56:10.113Z,97883.03
2018-07-20T02:57:13.059Z,97887.84
2018-07-20T02:58:16.061Z,97887.32
2018-07-20T02:59:19.107Z,97886.44
2018-07-20T03:00:22.387Z,97889.25
2018-07-20T03:01:25.277Z,97886.14
2018-07-20T03:02:28.275Z,97886.67
2018-07-20T03:03:31.140Z,97884.35
2018-07-20T03:04:34.157Z,97887.24
2018-07-20T03:05:37.784Z,97889.30
2018-07-20T03:06:40.706Z,97891.95
2018-07-20T03:07:43.705Z,97887.52
2018-07-20T03:08:46.852Z,97886.80
2018-07-20T03:09:50.403Z,97886.77
2018-07-20T03:10:53.335Z,97887.20
2018-07-20T03:11:56.808Z,97885.92
2018-07-20T03:12:59.745Z,97884.39
2018-07-20T03:14:02.587Z,97885.92
2018-07-20T03:15:05.589Z,97879.44
2018-07-20T03:16:08.998Z,97882.70
2018-07-20T03:17:11.990Z,97883.66
2018-07-20T03:18:16.943Z,97881.62
2018-07-20T03:19:19.969Z,97879.32
2018-07-20T03:20:24.974Z,97884.06
2018-07-20T03:21:27.959Z,97882.06
2018-07-20T03:22:30.873Z,97876.95
2018-07-20T03:23:34.699Z,97878.72
2018-07-20T03:24:38.558Z,97887.02
2018-07-20T03:25:41.433Z,97875.20
2018-07-20T03:26:45.634Z,97881.77
2018-07-20T03:27:49.461Z,97876.22
2018-07-20T03:28:52.380Z,97875.22
2018-07-20T03:29:55.482Z,97878.81
2018-07-20T03:30:58.939Z,97875.99
2018-07-20T03:32:01.792Z,97873.39
2018-07-20T03:33:04.655Z,97863.92
2018-07-20T03:34:07.674Z,97869.66
2018-07-20T03:35:10.868Z,97874.13
2018-07-20T03:36:13.931Z,97874.67
2018-07-20T03:37:17.607Z,97872.16
2018-07-20T03:38:22.647Z,97870.50
2018-07-20T03:39:25.608Z,97872.40
2018-07-20T03:40:29.531Z,97873.98
2018-07-20T03:41:35.497Z,97875.43
2018-07-20T03:42:38.583Z,97876.03
2018-07-20T03:43:42.324Z,97868.41
2018-07-20T03:44:45.320Z,97876.89
2018-07-20T03:45:48.285Z,97875.34
2018-07-20T03:46:51.355Z,97866.82
2018-07-20T03:47:54.355Z,97863.92
2018-07-20T03:48:57.325Z,97863.77
2018-07-20T03:50:00.398Z,97862.48
2018-07-20T03:51:03.269Z,97859.02
2018-07-20T03:52:06.208Z,97864.45
2018-07-20T03:53:09.709Z,97863.47
2018-07-20T03:54:12.651Z,97858.52
2018-07-20T03:55:15.988Z,97857.63
2018-07-20T03:56:19.030Z,97865.29
2018-07-20T03:57:21.971Z,97860.20
2018-07-20T03:58:27.183Z,97858.69
2018-07-20T03:59:30.265Z,97861.02
2018-07-20T04:00:33.311Z,97860.64
2018-07-20T04:01:36.569Z,97861.36
2018-07-20T04:02:39.788Z,97859.50
2018-07-20T04:03:51.119Z,97857.75
2018-07-20T04:04:54.287Z,97863.53
2018-07-20T04:05:58.224Z,97857.77
2018-07-20T04:07:02.069Z,97856.06
2018-07-20T04:08:06.289Z,97864.21
2018-07-20T04:09:10.270Z,97861.55
2018-07-20T04:10:13.197Z,97851.80
2018-07-20T04:11:16.143Z,97857.73
2018-07-20T04:12:19.099Z,97860.33
2018-07-20T04:13:21.978Z,97860.92
2018-07-20T04:14:25.544Z,97860.63
2018-07-20T04:15:28.661Z,97858.55
2018-07-20T04:16:31.811Z,97852.47
2018-07-20T04:17:39.532Z,97851.09
2018-07-20T04:18:42.492Z,97849.35
2018-07-20T04:19:45.343Z,97856.63
2018-07-20T04:20:48.559Z,97856.39
2018-07-20T04:21:52.625Z,97854.38
2018-07-20T04:22:55.534Z,97857.67
2018-07-20T04:23:58.424Z,97848.97
2018-07-20T04:25:01.305Z,97846.58
2018-07-20T04:26:04.150Z,97851.36
2018-07-20T04:27:07.540Z,97856.86
2018-07-20T04:28:10.373Z,97850.86
2018-07-20T04:29:13.394Z,97849.55
2018-07-20T04:30:16.430Z,97848.17
2018-07-20T04:31:19.577Z,97856.80
2018-07-20T04:32:22.580Z,97855.61
2018-07-20T04:33:25.771Z,97852.48
2018-07-20T04:34:28.614Z,97849.14
2018-07-20T04:35:31.611Z,97857.11
2018-07-20T04:36:34.539Z,97850.64
2018-07-20T04:37:37.497Z,97852.83
2018-07-20T04:38:40.415Z,97856.02
2018-07-20T04:39:43.698Z,97852.86
2018-07-20T04:40:46.605Z,97848.35
2018-07-20T04:41:49.593Z,97844.91
2018-07-20T04:42:52.491Z,97848.09
2018-07-20T04:43:55.450Z,97856.64
2018-07-20T04:44:58.580Z,97851.39
2018-07-20T04:46:01.919Z,97848.45
2018-07-20T04:47:04.798Z,97845.87
2018-07-20T04:48:07.924Z,97846.92
2018-07-20T04:49:12.158Z,97849.45
2018-07-20T04:51:29.964Z,97844.67
2018-07-20T04:52:32.925Z,97844.64
2018-07-20T04:53:36.931Z,97849.71
2018-07-20T04:54:39.861Z,97844.16
2018-07-20T04:55:42.794Z,97846.28
2018-07-20T04:56:45.720Z,97844.59
2018-07-20T04:57:49.679Z,97844.03
2018-07-20T04:58:52.643Z,97845.70
2018-07-20T04:59:55.490Z,97846.66
2018-07-20T05:00:58.394Z,97843.74
2018-07-20T05:02:01.363Z,97841.30
2018-07-20T05:03:04.332Z,97846.98
2018-07-20T05:04:07.835Z,97843.23
2018-07-20T05:05:10.930Z,97841.83
2018-07-20T05:06:17.480Z,97840.31
2018-07-20T05:07:29.994Z,97833.56
2018-07-20T05:08:33.102Z,97832.30
2018-07-20T05:09:36.075Z,97837.08
2018-07-20T05:10:42.338Z,97840.33
2018-07-20T05:11:45.565Z,97838.62
2018-07-20T05:12:48.638Z,97832.57
2018-07-20T05:13:52.067Z,97840.27
2018-07-20T05:14:56.615Z,97838.52
2018-07-20T05:15:59.744Z,97838.45
2018-07-20T05:17:03.078Z,97842.30
2018-07-20T05:18:05.966Z,97839.61
2018-07-20T05:19:09.417Z,97840.60
2018-07-20T05:20:12.945Z,97840.84
2018-07-20T05:21:15.912Z,97839.73
2018-07-20T05:22:19.481Z,97829.44
2018-07-20T05:23:22.770Z,97829.91
2018-07-20T05:24:26.344Z,97829.27
2018-07-20T05:25:31.957Z,97830.43
2018-07-20T05:26:36.030Z,97838.38
2018-07-20T05:27:39.650Z,97832.39
2018-07-20T05:28:42.600Z,97830.59
2018-07-20T05:29:45.799Z,97829.52
2018-07-20T05:30:48.789Z,97828.53
2018-07-20T05:31:53.714Z,97819.66
2018-07-20T05:32:57.713Z,97824.79
2018-07-20T05:34:02.349Z,97821.70
2018-07-20T05:35:05.812Z,97820.62
2018-07-20T05:36:09.035Z,97825.30
2018-07-20T05:37:13.469Z,97825.13
2018-07-20T05:38:17.793Z,97821.99
2018-07-20T05:39:20.671Z,97825.03
2018-07-20T05:40:23.652Z,97817.45
2018-07-20T05:41:27.670Z,97823.06
2018-07-20T05:42:31.359Z,97821.13
2018-07-20T05:43:34.240Z,97822.18
2018-07-20T05:44:37.088Z,97822.75
2018-07-20T05:45:39.970Z,97815.44
2018-07-20T05:46:43.416Z,97822.11
2018-07-20T05:47:46.850Z,97817.22
2018-07-20T05:48:50.382Z,97816.38
2018-07-20T05:49:54.377Z,97817.36
2018-07-20T05:50:57.396Z,97815.41
2018-07-20T05:52:03.091Z,97819.18
2018-07-20T05:53:06.303Z,97813.48
2018-07-20T05:54:10.438Z,97816.31
2018-07-20T05:55:13.902Z,97819.25
2018-07-20T05:56:16.849Z,97815.05
2018-07-20T05:57:19.812Z,97814.25
2018-07-20T05:58:22.910Z,97812.39
2018-07-20T05:59:25.894Z,97808.02
2018-07-20T06:00:29.149Z,97815.09
2018-07-20T06:01:32.098Z,97814.91
2018-07-20T06:02:35.463Z,97816.31
2018-07-20T06:03:39.260Z,97814.57
2018-07-20T06:04:42.455Z,97811.78
2018-07-20T06:05:46.525Z,97815.32
2018-07-20T06:06:50.886Z,97813.62
2018-07-20T06:07:54.760Z,97810.62
2018-07-20T06:08:57.752Z,97815.41
2018-07-20T06:10:00.758Z,97812.20
2018-07-20T06:11:03.977Z,97814.34
2018-07-20T06:12:11.305Z,97809.57
2018-07-20T06:13:15.798Z,97813.92
2018-07-20T06:14:19.381Z,97815.09
2018-07-20T06:15:22.341Z,97813.47
2018-07-20T06:16:25.886Z,97814.81
2018-07-20T06:17:28.819Z,97812.54
2018-07-20T06:18:34.828Z,97807.39
2018-07-20T06:19:38.310Z,97805.96
2018-07-20T06:20:41.284Z,97804.97
2018-07-20T06:21:44.208Z,97810.33
2018-07-20T06:22:47.139Z,97806.29
2018-07-20T06:23:50.098Z,97807.75
2018-07-20T06:24:54.070Z,97805.45
2018-07-20T06:25:58.114Z,97804.27
2018-07-20T06:27:13.016Z,97805.14
2018-07-20T06:28:21.987Z,97806.37
2018-07-20T06:33:40.007Z,97795.86
2018-07-20T06:34:43.219Z,97804.59
2018-07-20T06:37:01.868Z,97798.28
2018-07-20T06:40:47.134Z,97803.30
2018-07-20T06:43:04.173Z,97796.19
2018-07-20T06:44:09.290Z,97800.76
2018-07-20T06:45:12.573Z,97798.97
2018-07-20T06:46:16.027Z,97804.30
2018-07-20T06:47:41.776Z,97802.67
2018-07-20T06:48:45.264Z,97793.84
2018-07-20T06:49:50.809Z,97801.34
2018-07-20T06:50:53.679Z,97802.12
2018-07-20T06:52:01.406Z,97804.34
2018-07-20T06:53:11.021Z,97807.91
2018-07-20T06:54:15.932Z,97806.11
2018-07-20T06:56:34.045Z,97801.72
2018-07-20T06:57:38.201Z,97804.67
2018-07-20T06:58:41.497Z,97801.33
2018-07-20T06:59:45.248Z,97797.94
2018-07-20T07:00:48.233Z,97802.22
2018-07-20T07:01:52.056Z,97799.22
2018-07-20T07:02:57.045Z,97795.63
2018-07-20T07:04:01.703Z,97789.89
2018-07-20T07:05:04.771Z,97797.85
2018-07-20T07:06:07.691Z,97792.30
2018-07-20T07:07:11.951Z,97794.12
2018-07-20T07:08:14.936Z,97791.05
2018-07-20T07:09:18.582Z,97794.45
2018-07-20T07:10:22.544Z,97799.16
2018-07-20T07:11:25.757Z,97792.88
2018-07-20T07:12:28.779Z,97793.77
2018-07-20T07:13:31.708Z,97797.55
2018-07-20T07:14:34.651Z,97796.09
2018-07-20T07:15:37.902Z,97796.31
2018-07-20T07:16:40.840Z,97797.97
2018-07-20T07:17:43.837Z,97795.88
2018-07-20T07:18:46.839Z,97796.06
2018-07-20T07:19:51.327Z,97799.75
2018-07-20T07:20:54.264Z,97796.19
2018-07-20T07:21:57.660Z,97800.14
2018-07-20T07:23:01.179Z,97796.60
2018-07-20T07:24:04.519Z,97800.66
2018-07-20T07:25:08.180Z,97798.58
2018-07-20T07:26:11.990Z,97793.21
2018-07-20T07:27:15.787Z,97792.63
2018-07-20T07:28:30.583Z,97793.09
2018-07-20T07:30:48.610Z,97795.66
2018-07-20T07:31:52.361Z,97797.97
2018-07-20T07:32:56.704Z,97800.23
2018-07-20T08:33:16.332Z,97770.16
2018-07-20T08:34:19.375Z,97773.70
2018-07-20T08:35:22.442Z,97777.80
2018-07-20T08:36:26.821Z,97763.14
2018-07-20T08:37:29.830Z,97771.59
2018-07-20T08:38:33.292Z,97770.72
2018-07-20T08:39:46.482Z,97765.25
2018-07-20T08:40:50.307Z,97765.42
2018-07-20T08:41:53.243Z,97766.86
2018-07-20T08:42:56.227Z,97767.77
2018-07-20T08:43:59.121Z,97766.34
2018-07-20T08:45:02.593Z,97762.19
2018-07-20T08:46:06.070Z,97758.77
2018-07-20T08:47:09.600Z,97759.81
2018-07-20T08:48:13.781Z,97758.42
2018-07-20T08:49:21.346Z,97759.87
2018-07-20T08:50:25.554Z,97762.87
2018-07-20T08:51:29.752Z,97756.65
2018-07-20T08:52:35.332Z,97757.91
2018-07-20T08:53:38.334Z,97749.75
2018-07-20T08:54:41.506Z,97754.22
2018-07-20T08:55:45.603Z,97757.25
2018-07-20T08:56:49.666Z,97756.77
2018-07-20T08:57:54.313Z,97750.38
2018-07-20T08:58:57.650Z,97754.57
2018-07-20T09:00:01.139Z,97754.42
2018-07-20T09:01:04.972Z,97750.98
2018-07-20T09:02:08.069Z,97758.14
2018-07-20T09:03:11.271Z,97755.33
2018-07-20T09:04:19.359Z,97755.97
2018-07-20T09:05:23.723Z,97755.01
2018-07-20T09:06:28.605Z,97752.99
2018-07-20T09:07:31.647Z,97759.05
2018-07-20T09:08:35.486Z,97757.66
2018-07-20T09:09:39.272Z,97755.71
2018-07-20T09:10:47.294Z,97747.48
2018-07-20T09:11:53.413Z,97752.05
2018-07-20T09:12:56.537Z,97751.11
2018-07-20T09:14:00.474Z,97754.99
2018-07-20T09:15:04.056Z,97748.53
2018-07-20T09:16:08.289Z,97751.25
2018-07-20T09:17:12.724Z,97756.12
2018-07-20T09:18:16.193Z,97751.97
2018-07-20T09:19:19.753Z,97755.63
2018-07-20T09:20:22.745Z,97750.23
2018-07-20T09:21:27.534Z,97748.33
2018-07-20T09:22:32.505Z,97753.06
2018-07-20T09:23:35.567Z,97745.21
2018-07-20T09:24:39.924Z,97746.52
2018-07-20T09:25:42.881Z,97745.97
2018-07-20T09:26:45.941Z,97742.87
2018-07-20T09:29:07.059Z,97742.45
2018-07-20T09:30:12.020Z,97751.93
2018-07-20T09:31:19.509Z,97746.64
2018-07-20T09:32:23.669Z,97739.95
2018-07-20T09:33:26.785Z,97744.38
2018-07-20T09:34:30.688Z,97737.73
2018-07-20T09:35:36.642Z,97742.69
2018-07-20T09:36:40.764Z,97740.55
2018-07-20T09:37:44.232Z,97744.21
2018-07-20T09:38:56.533Z,97745.67
2018-07-20T09:39:59.593Z,97749.42
2018-07-20T09:41:04.260Z,97753.36
2018-07-20T09:42:08.353Z,97747.69
2018-07-20T09:43:11.389Z,97749.77
2018-07-20T09:44:15.024Z,97742.27
2018-07-20T09:45:18.287Z,97748.72
2018-07-20T09:46:22.656Z,97747.86
2018-07-20T09:47:25.595Z,97747.83
2018-07-20T09:48:29.602Z,97744.91
2018-07-20T09:49:32.683Z,97741.97
2018-07-20T09:50:39.146Z,97737.97
2018-07-20T09:51:43.927Z,97739.63
2018-07-20T09:52:46.969Z,97738.87
2018-07-20T09:53:49.934Z,97745.56
2018-07-20T09:54:52.830Z,97746.43
2018-07-20T09:57:05.445Z,97734.67
2018-07-20T09:58:08.453Z,97743.32
2018-07-20T09:59:14.884Z,97742.19
2018-07-20T10:00:25.201Z,97741.41
2018-07-20T10:01:28.112Z,97738.03
2018-07-20T10:02:31.384Z,97739.73
2018-07-20T10:03:34.697Z,97730.69
2018-07-20T10:04:37.843Z,97732.66
2018-07-20T10:05:40.968Z,97730.55
2018-07-20T10:06:44.092Z,97724.45
2018-07-20T10:07:50.515Z,97724.14
2018-07-20T10:08:54.185Z,97725.65
2018-07-20T10:10:03.452Z,97726.56
2018-07-20T10:11:07.381Z,97720.13
2018-07-20T10:12:11.005Z,97726.02
2018-07-20T10:13:16.215Z,97728.38
2018-07-20T10:14:19.093Z,97724.01
2018-07-20T10:15:23.421Z,97721.78
2018-07-20T10:16:26.363Z,97718.51
2018-07-20T10:17:29.235Z,97724.43
2018-07-20T10:18:34.987Z,97724.82
2018-07-20T10:19:38.647Z,97721.54
2018-07-20T10:20:41.623Z,97722.28
2018-07-20T10:21:47.068Z,97718.09
2018-07-20T10:22:53.680Z,97716.31
2018-07-20T10:24:00.005Z,97715.64
2018-07-20T10:25:03.450Z,97718.38
2018-07-20T10:26:07.149Z,97715.93
2018-07-20T10:28:13.712Z,97714.77
2018-07-20T10:29:17.710Z,97712.65
2018-07-20T10:30:21.402Z,97719.05
2018-07-20T10:31:25.108Z,97711.45
2018-07-20T10:32:28.336Z,97720.38
2018-07-20T10:33:31.359Z,97712.28
2018-07-20T10:34:35.150Z,97712.48
2018-07-20T10:35:38.708Z,97708.20
2018-07-20T10:36:41.610Z,97711.10
2018-07-20T10:37:44.514Z,97708.77
2018-07-20T10:38:47.430Z,97711.84
2018-07-20T10:39:50.253Z,97709.61
2018-07-20T10:40:54.662Z,97702.69
2018-07-20T10:41:58.148Z,97707.19
2018-07-20T10:43:01.748Z,97704.16
2018-07-20T10:44:04.680Z,97703.41
2018-07-20T10:45:07.547Z,97696.45
2018-07-20T10:46:15.519Z,97695.66
2018-07-20T10:47:20.203Z,97699.20
2018-07-20T10:48:34.765Z,97705.05
2018-07-20T10:49:50.943Z,97701.02
2018-07-20T10:51:01.695Z,97697.34
2018-07-20T10:52:06.291Z,97693.23
2018-07-20T10:53:09.175Z,97688.00
2018-07-20T10:54:14.949Z,97684.25
2018-07-20T10:55:19.021Z,97668.19
2018-07-20T10:56:22.100Z,97685.27
2018-07-20T10:57:27.475Z,97698.78
2018-07-20T10:58:30.855Z,97689.89
2018-07-20T10:59:35.898Z,97681.09
2018-07-20T11:00:39.348Z,97699.28
2018-07-20T11:01:42.471Z,97700.00
2018-07-20T11:02:47.081Z,97691.95
2018-07-20T11:03:51.669Z,97699.17
2018-07-20T11:06:34.711Z,97689.14
2018-07-20T11:08:01.937Z,97692.41
2018-07-20T11:09:08.352Z,97693.02
2018-07-20T11:10:13.831Z,97688.61
2018-07-20T11:11:17.103Z,97680.92
2018-07-20T11:12:22.475Z,97680.78
2018-07-20T11:13:28.214Z,97675.86
2018-07-20T11:14:39.278Z,97680.22
2018-07-20T11:15:47.928Z,97674.48
2018-07-20T11:16:53.999Z,97680.25
2018-07-20T11:17:58.838Z,97676.55
2018-07-20T11:19:03.059Z,97673.33
2018-07-20T11:20:12.535Z,97675.78
2018-07-20T11:21:17.517Z,97681.28
2018-07-20T11:22:23.932Z,97681.67
2018-07-20T11:24:53.257Z,97674.56
2018-07-20T11:25:58.021Z,97679.70
2018-07-20T11:27:05.490Z,97673.25
2018-07-20T11:28:12.342Z,97673.39
2018-07-20T11:30:33.365Z,97672.94
2018-07-20T11:31:38.682Z,97673.66
2018-07-20T11:32:46.557Z,97671.52
2018-07-20T11:33:50.163Z,97667.02
2018-07-20T11:34:58.455Z,97672.46
2018-07-20T11:36:01.713Z,97672.16
2018-07-20T11:37:07.343Z,97673.12
2018-07-20T11:38:14.499Z,97671.59
2018-07-20T11:39:18.511Z,97671.98
2018-07-20T11:40:21.390Z,97669.75
2018-07-20T11:41:24.292Z,97673.69
2018-07-20T11:42:41.494Z,97666.84
2018-07-20T11:43:46.218Z,97670.33
2018-07-20T11:44:49.248Z,97667.38
2018-07-20T11:45:54.333Z,97670.53
2018-07-20T11:48:14.689Z,97662.15
2018-07-20T11:49:20.641Z,97657.73
2018-07-20T11:50:24.410Z,97657.31
2018-07-20T11:51:28.627Z,97668.58
2018-07-20T11:52:31.962Z,97654.84
2018-07-20T11:53:34.923Z,97656.62
2018-07-20T11:54:37.834Z,97655.88
2018-07-20T11:55:40.709Z,97655.75
2018-07-20T11:56:44.232Z,97651.84
2018-07-20T11:57:47.261Z,97655.73
2018-07-20T11:58:50.635Z,97650.77
2018-07-20T11:59:53.791Z,97651.87
2018-07-20T12:00:56.685Z,97647.92
2018-07-20T12:01:59.624Z,97647.92
2018-07-20T12:03:02.706Z,97648.14
2018-07-20T12:04:05.671Z,97649.61
2018-07-20T12:05:09.607Z,97651.06
2018-07-20T12:06:13.287Z,97644.05
2018-07-20T12:07:17.625Z,97651.81
2018-07-20T12:08:21.634Z,97653.73
2018-07-20T12:09:24.608Z,97648.55
2018-07-20T12:10:30.247Z,97646.69
2018-07-20T12:11:33.598Z,97644.95
2018-07-20T12:12:36.482Z,97646.56
2018-07-20T12:13:39.524Z,97645.16
2018-07-20T12:14:43.280Z,97645.11
2018-07-20T12:15:46.867Z,97640.60
2018-07-20T12:16:50.588Z,97635.20
2018-07-20T12:17:55.527Z,97637.97
2018-07-20T12:18:58.457Z,97636.42
2018-07-20T12:20:01.403Z,97635.78
2018-07-20T12:21:04.308Z,97634.05
2018-07-20T12:22:13.362Z,97632.77
2018-07-20T12:23:16.954Z,97631.34
2018-07-20T12:24:20.396Z,97630.20
2018-07-20T12:25:25.015Z,97636.38
2018-07-20T12:26:28.536Z,97632.61
2018-07-20T12:27:32.265Z,97630.71
2018-07-20T12:28:36.641Z,97631.06
2018-07-20T12:29:39.529Z,97631.89
2018-07-20T12:30:43.588Z,97628.09
2018-07-20T12:31:46.450Z,97629.83
2018-07-20T12:32:50.461Z,97624.06
2018-07-20T12:33:54.416Z,97623.20
2018-07-20T12:34:58.656Z,97625.31
2018-07-20T12:36:02.187Z,97622.03
2018-07-20T12:37:06.382Z,97628.13
2018-07-20T12:38:12.264Z,97621.78
2018-07-20T12:39:15.177Z,97618.98
2018-07-20T12:40:21.037Z,97622.13
2018-07-20T12:41:23.966Z,97617.02
2018-07-20T12:42:27.721Z,97620.50
2018-07-20T12:43:31.284Z,97622.28
2018-07-20T12:44:35.624Z,97620.94
2018-07-20T12:45:38.808Z,97617.13
2018-07-20T12:46:44.771Z,97619.53
2018-07-20T12:47:48.414Z,97617.91
2018-07-20T12:48:52.817Z,97614.27
2018-07-20T12:49:56.277Z,97609.12
2018-07-20T12:51:00.776Z,97619.27
2018-07-20T12:52:03.689Z,97620.93
2018-07-20T12:53:06.598Z,97610.30
2018-07-20T12:54:11.422Z,97610.13
2018-07-20T12:55:15.472Z,97604.64
2018-07-20T12:56:18.794Z,97612.84
2018-07-20T12:57:23.416Z,97610.75
2018-07-20T12:58:27.461Z,97606.03
2018-07-20T12:59:30.247Z,97605.03
2018-07-20T13:00:33.190Z,97605.20
2018-07-20T13:01:37.025Z,97606.64
2018-07-20T13:02:40.471Z,97605.84
2018-07-20T13:03:44.472Z,97601.09
2018-07-20T13:04:47.349Z,97604.20
2018-07-20T13:05:50.245Z,97605.38
2018-07-20T13:06:56.524Z,97605.94
2018-07-20T13:08:00.266Z,97605.52
2018-07-20T13:09:06.964Z,97605.67
2018-07-20T13:10:09.833Z,97599.05
2018-07-20T13:11:12.930Z,97604.84
2018-07-20T13:12:16.452Z,97601.56
2018-07-20T13:13:20.473Z,97607.30
2018-07-20T13:14:23.608Z,97601.39
2018-07-20T13:15:28.133Z,97606.24
2018-07-20T13:16:31.451Z,97601.87
2018-07-20T13:17:34.395Z,97603.13
2018-07-20T13:18:37.239Z,97599.38
2018-07-20T13:19:41.170Z,97593.69
2018-07-20T13:22:11.412Z,97596.07
2018-07-20T13:23:14.599Z,97599.94
2018-07-20T13:24:18.790Z,97597.44
2018-07-20T13:25:26.512Z,97584.25
2018-07-20T13:26:30.240Z,97586.55
2018-07-20T13:27:34.437Z,97586.85
2018-07-20T13:28:38.378Z,97592.94
2018-07-20T13:29:41.406Z,97592.39
2018-07-20T13:30:44.344Z,97590.38
2018-07-20T13:31:48.954Z,97588.06
2018-07-20T13:32:52.749Z,97589.25
2018-07-20T13:33:56.344Z,97585.49
2018-07-20T13:34:59.336Z,97585.97
2018-07-20T13:36:05.542Z,97583.13
2018-07-20T13:37:13.244Z,97578.88
2018-07-20T13:38:19.152Z,97580.31
2018-07-20T13:39:22.907Z,97575.50
2018-07-20T13:40:26.287Z,97569.73
2018-07-20T13:41:30.284Z,97574.31
2018-07-20T13:42:35.536Z,97576.22
2018-07-20T13:43:39.254Z,97570.77
2018-07-20T13:44:43.749Z,97564.86
2018-07-20T13:45:46.818Z,97569.41
2018-07-20T13:46:52.014Z,97572.19
2018-07-20T13:48:00.724Z,97568.70
2018-07-20T13:49:05.271Z,97561.61
2018-07-20T13:50:08.269Z,97566.80
2018-07-20T13:51:12.267Z,97564.84
2018-07-20T13:52:15.895Z,97564.31
2018-07-20T13:53:20.225Z,97562.30
2018-07-20T13:54:23.169Z,97567.48